Huvudsida
METAR-TAF:

METAR-TAF

Flygplatser :

Dayrestan Airport

Qeshm, Iran

latitud: 26-45-18N, longitud: 055-54-08E, höjd: 12 m

Aktuellt väderrapport

Denna rapport gjordes för 24 minuter sedan, klockan 21:00 UTC
Vind 16 kt från väst/sydväst
Temperatur 28°C
Fuktighet 89%
Tryck 1007 hPa
Sikt: 3000 m
fuktdis

METAR: OIKQ 212100Z 25016KT 3000 BR NSC 28/26 Q1007

Tid: 01:54 (21:24 UTC)


TAF: saknas

Aktuella väderrapporter och prognoser från 4000 flygplatser (METAR- och TAF-rapporter).

De tillgängliga stationerna syns som gula och röda prickar på kartan.

För musen över prickarna för att se namnen på stationerna.

Klicka sedan för att få väderrapporter och prognoser.

För att ändra kartan: Klicka på de gröna knapparna med ett svart kors på för att zooma in; den gröna knappen med ett streck på för att zooma ut; eller på de gröna pilarna för angränsande kartor.


METAR-TAF: